Grand Rapids, MI (49501)

12:55 AM EST on February 14, 2016 (GMT -0500)
WXGR.NET | | Change Station
CLOSE
Current Station
Personal Weather Station
Location: Grand Rapids, MI
Elevation: 756 ft
Nearby Weather Stations

Elev 756 ft 42.96 °N, 85.63 °W | Updated 16 seconds ago

Partly Cloudy
Partly Cloudy
10.6 °F
Feels Like 11 °F
N
0.0
Wind Variable Wind from NNE
Gusts 0.0 mph

Today
High -- | Low -- °F
--% Chance of Precip.
Yesterday
High -- | Low -- °F
Precip. -- in
Pressure 30.52 in
Visibility 10.0 miles
Clouds Clear
Windchill 11 °F
Dew Point -1 °F
Humidity 60%
Rainfall 0.00 in
Snow Depth Not available.
7:42 AM 6:12 PM
Waxing Crescent, 38% visible
METAR KGRR 140553Z AUTO 00000KT 10SM CLR M14/M18 A3046 RMK AO2 SLP334 60000 T11391178 11106 21139 50001
Pressure 30.52 in
Visibility 10.0 miles
Clouds Clear
Windchill 11 °F
Dew Point -1 °F
Humidity 60%
Rainfall 0.00 in
Snow Depth Not available.
7:42 AM 6:12 PM
Waxing Crescent, 38% visible
METAR KGRR 140553Z AUTO 00000KT 10SM CLR M14/M18 A3046 RMK AO2 SLP334 60000 T11391178 11106 21139 50001

10-Day Weather Forecast

Almanac

Astronomy

Feb. 14, 2016 Rise Set
Actual Time
Civil Twilight
Nautical Twilight
Astronomical Twilight
Moon
Length of Visible Light
Length of Day
Tomorrow will be .
, % of the Moon is Illuminated

Today's Extremes

State Highs State Lows

Community

WunderPhotos

Upload Photos

1,892,751 photos uploaded!

WunderBlog® & News

Nearby

Air Quality

  Air Quality AQ Index Pollutant
Not available.

Snow Depth

Station Depth Elevation

Earthquake Activity

City Distance Mag. Time & Date
Minimum magnitude displayed is 2.5.

Coastal Water Temperatures

Place Temperature

Stations

Nearby Weather Stations

Station Location Temp. Windchill Dew Point Humidity Wind Precip. Elev Updated Type
                   

Watches & Warnings

There are currently no watches in effect.